createdAt,value
2022-08-07T00:13:57.347Z,99530.70
2022-08-07T00:46:09.364Z,99548.15
2022-08-07T00:56:44.859Z,99554.55
2022-08-07T01:00:00.026Z,99558.23
2022-08-07T01:03:12.754Z,99569.44
2022-08-07T01:06:24.818Z,99558.86
2022-08-07T01:10:06.668Z,99553.14
2022-08-07T01:13:00.295Z,99565.73
2022-08-07T01:20:05.600Z,99557.54
2022-08-07T01:27:20.699Z,99555.38
2022-08-07T01:30:35.788Z,99553.02
2022-08-07T01:41:12.681Z,99557.01
2022-08-07T01:44:27.363Z,99542.42
2022-08-07T01:54:41.531Z,99547.47
2022-08-07T01:58:29.463Z,99538.73
2022-08-07T02:01:59.897Z,99546.61
2022-08-07T02:04:56.660Z,99552.17
2022-08-07T02:08:13.979Z,99547.12
2022-08-07T02:11:51.178Z,99545.27
2022-08-07T02:14:58.235Z,99547.47
2022-08-07T02:18:20.583Z,99549.64
2022-08-07T02:25:18.475Z,99549.64
2022-08-07T02:32:38.627Z,99541.75
2022-08-07T02:36:30.917Z,99536.73
2022-08-07T02:53:51.278Z,99558.18
2022-08-07T02:57:22.257Z,99559.17
2022-08-07T03:04:19.112Z,99557.14
2022-08-07T03:11:51.596Z,99557.14
2022-08-07T03:18:36.620Z,99545.57
2022-08-07T03:41:47.652Z,99554.78
2022-08-07T03:45:01.479Z,99569.86
2022-08-07T03:48:15.103Z,99560.82
2022-08-07T03:51:47.099Z,99560.65
2022-08-07T03:55:06.763Z,99568.70
2022-08-07T04:02:02.843Z,99572.06
2022-08-07T04:09:15.210Z,99573.41
2022-08-07T04:12:28.931Z,99579.96
2022-08-07T04:15:39.105Z,99567.39
2022-08-07T04:19:04.280Z,99582.34
2022-08-07T04:22:29.253Z,99575.81
2022-08-07T04:25:42.318Z,99578.61
2022-08-07T04:29:10.808Z,99582.65
2022-08-07T04:32:34.255Z,99582.99
2022-08-07T04:35:54.727Z,99589.37
2022-08-07T04:39:19.987Z,99588.88
2022-08-07T04:51:04.001Z,99588.36
2022-08-07T04:54:32.329Z,99597.39
2022-08-07T04:58:12.325Z,99593.38
2022-08-07T05:01:30.903Z,99599.28
2022-08-07T05:04:50.598Z,99608.18
2022-08-07T05:08:17.342Z,99601.30
2022-08-07T05:11:58.415Z,99605.86
2022-08-07T05:15:23.564Z,99614.90
2022-08-07T05:18:40.742Z,99616.91
2022-08-07T05:22:00.549Z,99618.44
2022-08-07T05:25:25.706Z,99612.73
2022-08-07T05:28:29.801Z,99612.89
2022-08-07T05:31:51.167Z,99614.05
2022-08-07T05:38:59.608Z,99618.45
2022-08-07T05:42:08.758Z,99622.66
2022-08-07T05:45:46.432Z,99634.56
2022-08-07T05:48:58.413Z,99632.21
2022-08-07T05:52:05.700Z,99624.98
2022-08-07T05:56:01.872Z,99626.98
2022-08-07T05:58:52.863Z,99628.69
2022-08-07T06:02:04.859Z,99634.06
2022-08-07T06:05:31.327Z,99633.72
2022-08-07T06:08:49.531Z,99631.03
2022-08-07T06:12:03.657Z,99634.41
2022-08-07T06:15:42.529Z,99632.91
2022-08-07T06:18:43.335Z,99632.77
2022-08-07T06:22:15.896Z,99631.07
2022-08-07T06:25:25.314Z,99636.77
2022-08-07T06:28:46.034Z,99634.95
2022-08-07T06:32:07.336Z,99642.20
2022-08-07T06:35:21.487Z,99640.17
2022-08-07T06:38:51.347Z,99640.85
2022-08-07T06:42:35.727Z,99635.80
2022-08-07T06:46:00.155Z,99642.81
2022-08-07T06:49:22.688Z,99644.50
2022-08-07T06:52:40.874Z,99638.30
2022-08-07T06:56:04.669Z,99645.50
2022-08-07T07:00:14.349Z,99641.16
2022-08-07T07:02:54.003Z,99642.05
2022-08-07T07:06:05.247Z,99638.70
2022-08-07T07:09:31.162Z,99641.53
2022-08-07T07:12:56.582Z,99644.41
2022-08-07T07:16:14.730Z,99645.75
2022-08-07T07:19:55.698Z,99641.22
2022-08-07T07:24:08.948Z,99639.22
2022-08-07T07:30:32.466Z,99635.86
2022-08-07T07:33:56.470Z,99633.13
2022-08-07T07:37:21.430Z,99642.39
2022-08-07T07:43:48.220Z,99646.06
2022-08-07T07:47:11.909Z,99634.44
2022-08-07T07:53:51.738Z,99639.49
2022-08-07T07:57:07.795Z,99641.17
2022-08-07T08:00:31.237Z,99650.07
2022-08-07T08:06:53.684Z,99645.84
2022-08-07T08:14:06.866Z,99641.70
2022-08-07T08:17:57.460Z,99645.06
2022-08-07T08:28:04.706Z,99645.38
2022-08-07T08:31:30.036Z,99641.61
2022-08-07T08:34:34.684Z,99639.76
2022-08-07T08:38:01.736Z,99634.92
2022-08-07T08:41:17.736Z,99629.75
2022-08-07T08:44:51.673Z,99630.56
2022-08-07T08:52:12.370Z,99635.77
2022-08-07T08:54:47.813Z,99633.86
2022-08-07T08:58:08.614Z,99635.73
2022-08-07T09:01:29.657Z,99633.01
2022-08-07T09:04:51.369Z,99629.52
2022-08-07T09:08:12.440Z,99631.75
2022-08-07T09:11:50.849Z,99628.61
2022-08-07T09:14:58.757Z,99626.70
2022-08-07T09:18:25.747Z,99627.39
2022-08-07T09:22:23.219Z,99618.13
2022-08-07T09:25:14.526Z,99620.08
2022-08-07T09:30:04.426Z,99614.84
2022-08-07T09:31:49.953Z,99611.86
2022-08-07T09:36:00.996Z,99608.10
2022-08-07T09:38:30.273Z,99604.16
2022-08-07T09:41:58.843Z,99601.53
2022-08-07T09:47:25.318Z,99599.29
2022-08-07T09:48:55.967Z,99593.64
2022-08-07T09:52:15.877Z,99603.05
2022-08-07T09:56:02.754Z,99592.36
2022-08-07T09:59:14.963Z,99583.20
2022-08-07T10:04:03.322Z,99590.94
2022-08-07T10:06:27.583Z,99575.35
2022-08-07T10:10:06.313Z,99572.28
2022-08-07T10:14:00.180Z,99574.20
2022-08-07T10:17:17.088Z,99571.16
2022-08-07T10:20:39.539Z,99572.05
2022-08-07T10:24:08.804Z,99554.98
2022-08-07T10:27:46.228Z,99545.89
2022-08-07T10:31:02.680Z,99544.47
2022-08-07T10:34:32.276Z,99539.30
2022-08-07T10:38:09.619Z,99541.34
2022-08-07T10:41:13.666Z,99539.64
2022-08-07T10:44:37.702Z,99529.72
2022-08-07T10:47:59.891Z,99532.72
2022-08-07T10:51:16.815Z,99518.00
2022-08-07T10:54:40.982Z,99523.23
2022-08-07T10:58:00.128Z,99519.59
2022-08-07T11:01:35.843Z,99519.49
2022-08-07T11:05:10.286Z,99518.88
2022-08-07T11:08:30.273Z,99516.27
2022-08-07T11:11:51.885Z,99504.77
2022-08-07T11:15:14.563Z,99506.67
2022-08-07T11:18:29.331Z,99514.59
2022-08-07T11:21:49.703Z,99512.70
2022-08-07T11:25:10.364Z,99512.84
2022-08-07T11:28:28.219Z,99511.31
2022-08-07T11:31:48.304Z,99517.29
2022-08-07T11:35:05.637Z,99510.27
2022-08-07T11:38:28.226Z,99511.29
2022-08-07T11:42:01.596Z,99509.38
2022-08-07T11:45:06.320Z,99507.28
2022-08-07T11:48:58.908Z,99498.09
2022-08-07T11:52:11.817Z,99505.06
2022-08-07T11:56:24.861Z,99504.25
2022-08-07T11:58:57.010Z,99494.89
2022-08-07T12:02:30.471Z,99496.52
2022-08-07T12:05:48.968Z,99492.80
2022-08-07T12:09:05.548Z,99493.47
2022-08-07T12:12:24.371Z,99491.81
2022-08-07T12:16:05.787Z,99486.64
2022-08-07T12:18:57.895Z,99481.78
2022-08-07T12:22:38.654Z,99480.08
2022-08-07T12:26:05.699Z,99475.89
2022-08-07T12:29:12.439Z,99481.38
2022-08-07T12:32:31.961Z,99474.36
2022-08-07T12:35:48.194Z,99471.73
2022-08-07T12:39:00.919Z,99473.01
2022-08-07T12:42:16.098Z,99473.96
2022-08-07T12:45:33.427Z,99465.47
2022-08-07T12:48:57.826Z,99459.63
2022-08-07T12:52:19.209Z,99447.13
2022-08-07T12:55:41.327Z,99448.42
2022-08-07T12:58:58.030Z,99445.91
2022-08-07T13:02:15.134Z,99441.34
2022-08-07T13:06:03.356Z,99447.58
2022-08-07T13:10:10.089Z,99444.27
2022-08-07T13:12:23.773Z,99441.99
2022-08-07T13:15:43.827Z,99438.00
2022-08-07T13:19:05.404Z,99431.78
2022-08-07T13:22:28.007Z,99427.83
2022-08-07T13:25:44.736Z,99433.86
2022-08-07T13:29:08.591Z,99421.98
2022-08-07T13:32:31.611Z,99419.28
2022-08-07T13:36:00.416Z,99420.92
2022-08-07T13:39:17.841Z,99416.36
2022-08-07T13:42:28.680Z,99410.52
2022-08-07T13:46:10.905Z,99405.10
2022-08-07T13:49:08.700Z,99402.61
2022-08-07T13:52:32.194Z,99396.09
2022-08-07T13:55:37.174Z,99390.48
2022-08-07T13:59:12.072Z,99396.09
2022-08-07T14:02:29.617Z,99390.67
2022-08-07T14:05:41.079Z,99392.76
2022-08-07T14:08:56.909Z,99391.10
2022-08-07T14:12:13.883Z,99387.13
2022-08-07T14:15:37.051Z,99376.70
2022-08-07T14:18:56.966Z,99382.95
2022-08-07T14:22:34.210Z,99372.95
2022-08-07T14:25:39.590Z,99369.61
2022-08-07T14:28:57.373Z,99366.05
2022-08-07T14:32:01.857Z,99364.40
2022-08-07T14:35:43.178Z,99363.73
2022-08-07T14:38:36.210Z,99363.33
2022-08-07T14:42:20.357Z,99361.87
2022-08-07T14:45:21.457Z,99351.07
2022-08-07T14:48:27.374Z,99355.05
2022-08-07T14:52:04.355Z,99350.03
2022-08-07T14:54:56.990Z,99346.08
2022-08-07T14:58:24.758Z,99348.75
2022-08-07T15:01:42.436Z,99349.16
2022-08-07T15:04:53.210Z,99347.11
2022-08-07T15:08:08.851Z,99342.09
2022-08-07T15:11:50.937Z,99342.53
2022-08-07T15:14:56.092Z,99330.80
2022-08-07T15:18:06.040Z,99330.34
2022-08-07T15:25:14.890Z,99329.33
2022-08-07T15:28:32.318Z,99324.97
2022-08-07T15:34:35.809Z,99324.61
2022-08-07T15:38:04.670Z,99320.41
2022-08-07T15:41:22.981Z,99319.16
2022-08-07T15:44:23.850Z,99315.42
2022-08-07T15:47:59.845Z,99312.30
2022-08-07T15:51:08.217Z,99313.78
2022-08-07T15:54:13.547Z,99314.59
2022-08-07T15:57:39.603Z,99300.63
2022-08-07T16:00:46.272Z,99300.20
2022-08-07T16:04:03.966Z,99298.52
2022-08-07T16:08:29.104Z,99302.88
2022-08-07T16:10:37.488Z,99305.36
2022-08-07T16:14:03.353Z,99304.52
2022-08-07T16:18:01.624Z,99304.50
2022-08-07T16:21:57.064Z,99303.45
2022-08-07T16:24:34.244Z,99300.33
2022-08-07T16:27:40.013Z,99302.16
2022-08-07T16:30:59.266Z,99310.70
2022-08-07T16:34:18.340Z,99297.77
2022-08-07T16:38:11.273Z,99295.25
2022-08-07T16:42:18.383Z,99297.95
2022-08-07T16:46:40.336Z,99307.44
2022-08-07T16:50:28.672Z,99295.95
2022-08-07T16:54:06.471Z,99302.79
2022-08-07T16:58:00.917Z,99305.27
2022-08-07T17:00:40.810Z,99310.89
2022-08-07T17:03:59.648Z,99306.88
2022-08-07T17:07:28.519Z,99308.30
2022-08-07T17:10:54.553Z,99309.48
2022-08-07T17:14:18.526Z,99306.55
2022-08-07T17:17:46.636Z,99302.73
2022-08-07T17:21:00.795Z,99301.77
2022-08-07T17:24:31.063Z,99303.57
2022-08-07T17:27:51.848Z,99308.24
2022-08-07T17:31:16.675Z,99303.62
2022-08-07T17:34:35.512Z,99307.63
2022-08-07T17:38:09.460Z,99307.20
2022-08-07T17:42:02.580Z,99305.84
2022-08-07T17:44:33.827Z,99313.48
2022-08-07T17:47:54.125Z,99311.28
2022-08-07T17:51:12.573Z,99281.77
2022-08-07T17:54:53.049Z,99307.50
2022-08-07T17:58:01.390Z,99312.66
2022-08-07T18:01:21.577Z,99319.84
2022-08-07T18:04:48.568Z,99320.60
2022-08-07T18:08:16.374Z,99324.14
2022-08-07T18:12:17.810Z,99326.47
2022-08-07T18:14:53.142Z,99321.63
2022-08-07T18:18:47.319Z,99332.40
2022-08-07T18:22:00.469Z,99330.14
2022-08-07T18:25:19.087Z,99336.92
2022-08-07T18:31:55.429Z,99347.49
2022-08-07T18:35:51.863Z,99346.80
2022-08-07T18:40:07.973Z,99349.43
2022-08-07T18:42:43.659Z,99359.13
2022-08-07T18:46:25.978Z,99350.64
2022-08-07T18:50:33.151Z,99351.33
2022-08-07T18:53:12.469Z,99348.69
2022-08-07T18:56:39.365Z,99354.77
2022-08-07T19:00:34.389Z,99362.36
2022-08-07T19:03:43.858Z,99362.89
2022-08-07T19:10:22.369Z,99374.72
2022-08-07T19:13:54.578Z,99368.67
2022-08-07T19:17:54.494Z,99374.94
2022-08-07T19:24:07.193Z,99371.84
2022-08-07T19:28:57.515Z,99374.38
2022-08-07T19:30:56.401Z,99377.57
2022-08-07T19:34:00.587Z,99373.55
2022-08-07T19:37:17.920Z,99382.30
2022-08-07T19:40:34.533Z,99380.64
2022-08-07T19:43:54.511Z,99382.98
2022-08-07T19:47:11.869Z,99381.98
2022-08-07T19:50:44.438Z,99387.36
2022-08-07T19:54:31.045Z,99390.06
2022-08-07T19:58:02.615Z,99382.69
2022-08-07T20:00:29.077Z,99394.45
2022-08-07T20:03:50.249Z,99392.77
2022-08-07T20:14:33.877Z,99393.63
2022-08-07T20:18:01.402Z,99400.52
2022-08-07T20:21:21.539Z,99406.20
2022-08-07T20:24:38.816Z,99404.86
2022-08-07T20:27:58.579Z,99404.54
2022-08-07T20:32:03.846Z,99405.88
2022-08-07T20:35:26.421Z,99412.90
2022-08-07T20:38:53.324Z,99415.92
2022-08-07T20:41:55.542Z,99418.59
2022-08-07T20:45:33.457Z,99422.44
2022-08-07T20:48:30.840Z,99410.89
2022-08-07T20:51:50.768Z,99406.86
2022-08-07T20:55:05.623Z,99425.65
2022-08-07T20:58:26.547Z,99430.99
2022-08-07T21:01:45.180Z,99429.98
2022-08-07T21:04:50.322Z,99435.53
2022-08-07T21:08:06.757Z,99435.18
2022-08-07T21:11:28.968Z,99432.67
2022-08-07T21:14:53.322Z,99426.33
2022-08-07T21:18:28.041Z,99431.35
2022-08-07T21:21:16.237Z,99421.97
2022-08-07T21:24:33.189Z,99431.18
2022-08-07T21:27:55.418Z,99424.48
2022-08-07T21:31:31.198Z,99436.05
2022-08-07T21:34:46.140Z,99430.36
2022-08-07T21:38:00.140Z,99420.63
2022-08-07T21:41:19.281Z,99432.03
2022-08-07T21:44:40.268Z,99424.66
2022-08-07T21:48:00.551Z,99422.98
2022-08-07T21:51:25.033Z,99417.94
2022-08-07T21:54:48.507Z,99427.33
2022-08-07T21:58:12.071Z,99430.66
2022-08-07T22:02:11.158Z,99428.98
2022-08-07T22:04:53.575Z,99430.77
2022-08-07T22:08:05.572Z,99429.90
2022-08-07T22:11:30.684Z,99426.88
2022-08-07T22:14:59.757Z,99422.83
2022-08-07T22:18:06.375Z,99437.86
2022-08-07T22:21:23.739Z,99439.02
2022-08-07T22:24:45.217Z,99441.48
2022-08-07T22:28:29.800Z,99438.46
2022-08-07T22:31:59.060Z,99428.89
2022-08-07T22:34:49.662Z,99432.73
2022-08-07T22:38:10.217Z,99432.00
2022-08-07T22:41:29.122Z,99432.51
2022-08-07T22:44:59.017Z,99424.94
2022-08-07T22:48:54.528Z,99422.43
2022-08-07T22:52:10.206Z,99424.56
2022-08-07T22:55:46.209Z,99427.88
2022-08-07T22:59:36.255Z,99423.15
2022-08-07T23:03:28.606Z,99429.52
2022-08-07T23:07:39.975Z,99431.13
2022-08-07T23:10:38.452Z,99436.48
2022-08-07T23:14:15.201Z,99433.20
2022-08-07T23:17:45.046Z,99422.30
2022-08-07T23:21:10.745Z,99420.70
2022-08-07T23:24:45.732Z,99417.87
2022-08-07T23:28:36.741Z,99415.88
2022-08-07T23:34:20.636Z,99421.23
2022-08-07T23:35:22.098Z,99413.01
2022-08-07T23:38:54.857Z,99419.73
2022-08-07T23:42:21.441Z,99417.87
2022-08-07T23:46:03.754Z,99424.59
2022-08-07T23:49:50.147Z,99428.27
2022-08-07T23:52:58.713Z,99422.59
2022-08-07T23:56:15.246Z,99420.93
